Kragnes, Minnesota
Current Conditions -  °F | °C
As of 7:53 AM on Monday 26 Jan 2015 (Local Time) from KFAR Reporting Station
Clear Clear  
Wind Chill: 24°   Ceiling: Unl
Heat Index: 33°   Visibility: 10mi
Dew Point: 28°   Wind: 12mph
Humidity: 82%   Direction: 290°WNW
Pressure: 29.71"   Gusts: NA
Location:  46.9239°N, 96.7135°W
Report Text: KFAR 261353Z AUTO 29010KT 10SM CLR 01/M02 A2971 RMK AO2 SLP072 T00061022 TSNO
Loading
Personal Weather Stations






























Interactive Weather Map New forecast layout! Learn more

10-Day Weather Forecast

Advertisements
Track Severe Weather on mobile